sensor_id;sensor_type;location;lat;lon;timestamp;temperature;humidity
46732;DHT22;32477;51.474;5.696;2022-11-20T00:01:39;-1.00;99.90
46732;DHT22;32477;51.474;5.696;2022-11-20T00:03:58;-1.10;99.90
46732;DHT22;32477;51.474;5.696;2022-11-20T00:06:24;-1.30;99.90
46732;DHT22;32477;51.474;5.696;2022-11-20T00:08:51;-1.50;99.90
46732;DHT22;32477;51.474;5.696;2022-11-20T00:11:18;-1.50;99.90
46732;DHT22;32477;51.474;5.696;2022-11-20T00:13:46;-1.60;99.90
46732;DHT22;32477;51.474;5.696;2022-11-20T00:16:13;-1.60;99.90
46732;DHT22;32477;51.474;5.696;2022-11-20T00:18:39;-1.70;99.90
46732;DHT22;32477;51.474;5.696;2022-11-20T00:21:15;-1.80;99.90
46732;DHT22;32477;51.474;5.696;2022-11-20T00:23:41;-1.80;99.90
46732;DHT22;32477;51.474;5.696;2022-11-20T00:26:10;-1.90;99.90
46732;DHT22;32477;51.474;5.696;2022-11-20T00:28:36;-1.90;99.90
46732;DHT22;32477;51.474;5.696;2022-11-20T00:31:07;-2.00;99.90
46732;DHT22;32477;51.474;5.696;2022-11-20T00:33:33;-2.10;99.90
46732;DHT22;32477;51.474;5.696;2022-11-20T00:36:21;-2.10;99.90
46732;DHT22;32477;51.474;5.696;2022-11-20T00:38:45;-2.00;99.90
46732;DHT22;32477;51.474;5.696;2022-11-20T00:41:13;-2.10;99.90
46732;DHT22;32477;51.474;5.696;2022-11-20T00:43:39;-2.20;99.90
46732;DHT22;32477;51.474;5.696;2022-11-20T00:46:07;-2.20;99.90
46732;DHT22;32477;51.474;5.696;2022-11-20T00:48:33;-2.20;99.90
46732;DHT22;32477;51.474;5.696;2022-11-20T00:50:59;-2.30;99.90
46732;DHT22;32477;51.474;5.696;2022-11-20T00:53:25;-2.40;99.90
46732;DHT22;32477;51.474;5.696;2022-11-20T00:56:05;-2.30;99.90
46732;DHT22;32477;51.474;5.696;2022-11-20T00:58:33;-2.50;99.90
46732;DHT22;32477;51.474;5.696;2022-11-20T01:01:03;-2.60;99.90
46732;DHT22;32477;51.474;5.696;2022-11-20T01:03:31;-2.70;99.90
46732;DHT22;32477;51.474;5.696;2022-11-20T01:06:06;-2.60;99.90
46732;DHT22;32477;51.474;5.696;2022-11-20T01:08:33;-2.80;99.90
46732;DHT22;32477;51.474;5.696;2022-11-20T01:11:05;-2.80;99.90
46732;DHT22;32477;51.474;5.696;2022-11-20T01:13:32;-2.80;99.90
46732;DHT22;32477;51.474;5.696;2022-11-20T01:19:01;-2.70;99.90
46732;DHT22;32477;51.474;5.696;2022-11-20T01:21:29;-2.70;99.90
46732;DHT22;32477;51.474;5.696;2022-11-20T01:23:56;-2.90;99.90
46732;DHT22;32477;51.474;5.696;2022-11-20T01:26:25;-2.90;99.90
46732;DHT22;32477;51.474;5.696;2022-11-20T01:28:51;-3.00;99.90
46732;DHT22;32477;51.474;5.696;2022-11-20T01:33:45;-3.20;99.90
46732;DHT22;32477;51.474;5.696;2022-11-20T01:36:12;-3.10;99.90
46732;DHT22;32477;51.474;5.696;2022-11-20T01:38:38;-3.20;99.90
46732;DHT22;32477;51.474;5.696;2022-11-20T01:41:04;-3.00;99.90
46732;DHT22;32477;51.474;5.696;2022-11-20T01:43:30;-2.90;99.90
46732;DHT22;32477;51.474;5.696;2022-11-20T01:48:30;-2.90;99.90
46732;DHT22;32477;51.474;5.696;2022-11-20T01:50:57;-2.90;99.90
46732;DHT22;32477;51.474;5.696;2022-11-20T01:53:27;-3.00;99.90
46732;DHT22;32477;51.474;5.696;2022-11-20T01:55:56;-3.00;99.90
46732;DHT22;32477;51.474;5.696;2022-11-20T01:58:32;-3.10;99.90
46732;DHT22;32477;51.474;5.696;2022-11-20T02:00:59;-3.20;99.90
46732;DHT22;32477;51.474;5.696;2022-11-20T02:03:26;-3.20;99.90
46732;DHT22;32477;51.474;5.696;2022-11-20T02:08:30;-3.30;99.90
46732;DHT22;32477;51.474;5.696;2022-11-20T02:10:56;-3.20;99.90
46732;DHT22;32477;51.474;5.696;2022-11-20T02:13:22;-3.20;99.90
46732;DHT22;32477;51.474;5.696;2022-11-20T02:16:31;-3.10;99.90
46732;DHT22;32477;51.474;5.696;2022-11-20T02:18:56;-3.10;99.90
46732;DHT22;32477;51.474;5.696;2022-11-20T02:24:26;-3.20;99.90
46732;DHT22;32477;51.474;5.696;2022-11-20T02:27:12;-3.30;99.90
46732;DHT22;32477;51.474;5.696;2022-11-20T02:32:30;-3.20;99.90
46732;DHT22;32477;51.474;5.696;2022-11-20T02:34:56;-3.30;99.90
46732;DHT22;32477;51.474;5.696;2022-11-20T02:37:23;-3.20;99.90
46732;DHT22;32477;51.474;5.696;2022-11-20T02:39:51;-3.00;99.90
46732;DHT22;32477;51.474;5.696;2022-11-20T02:42:17;-2.90;99.90
46732;DHT22;32477;51.474;5.696;2022-11-20T02:44:43;-2.70;99.90
46732;DHT22;32477;51.474;5.696;2022-11-20T02:47:09;-2.70;99.90
46732;DHT22;32477;51.474;5.696;2022-11-20T02:49:35;-2.50;99.90
46732;DHT22;32477;51.474;5.696;2022-11-20T02:52:00;-2.30;99.90
46732;DHT22;32477;51.474;5.696;2022-11-20T02:54:26;-2.20;99.90
46732;DHT22;32477;51.474;5.696;2022-11-20T02:56:52;-2.00;99.90
46732;DHT22;32477;51.474;5.696;2022-11-20T02:59:17;-1.90;99.90
46732;DHT22;32477;51.474;5.696;2022-11-20T03:01:43;-1.90;99.90
46732;DHT22;32477;51.474;5.696;2022-11-20T03:04:09;-1.80;99.90
46732;DHT22;32477;51.474;5.696;2022-11-20T03:06:34;-1.70;99.90
46732;DHT22;32477;51.474;5.696;2022-11-20T03:09:00;-1.80;99.90
46732;DHT22;32477;51.474;5.696;2022-11-20T03:11:26;-1.70;99.90
46732;DHT22;32477;51.474;5.696;2022-11-20T03:13:51;-1.70;99.90
46732;DHT22;32477;51.474;5.696;2022-11-20T03:16:22;-1.70;99.90
46732;DHT22;32477;51.474;5.696;2022-11-20T03:18:48;-1.70;99.90
46732;DHT22;32477;51.474;5.696;2022-11-20T03:21:15;-1.80;99.90
46732;DHT22;32477;51.474;5.696;2022-11-20T03:23:41;-1.70;99.90
46732;DHT22;32477;51.474;5.696;2022-11-20T03:28:39;-1.70;99.90
46732;DHT22;32477;51.474;5.696;2022-11-20T03:31:11;-1.70;99.90
46732;DHT22;32477;51.474;5.696;2022-11-20T03:33:37;-1.80;99.90
46732;DHT22;32477;51.474;5.696;2022-11-20T03:36:09;-1.90;99.90
46732;DHT22;32477;51.474;5.696;2022-11-20T03:38:36;-2.00;99.90
46732;DHT22;32477;51.474;5.696;2022-11-20T03:41:08;-1.90;99.90
46732;DHT22;32477;51.474;5.696;2022-11-20T03:43:34;-1.90;99.90
46732;DHT22;32477;51.474;5.696;2022-11-20T03:46:00;-1.80;99.90
46732;DHT22;32477;51.474;5.696;2022-11-20T03:48:26;-1.80;99.90
46732;DHT22;32477;51.474;5.696;2022-11-20T03:50:53;-1.70;99.90
46732;DHT22;32477;51.474;5.696;2022-11-20T03:53:19;-1.80;99.90
46732;DHT22;32477;51.474;5.696;2022-11-20T03:55:50;-1.80;99.90
46732;DHT22;32477;51.474;5.696;2022-11-20T03:58:16;-1.80;99.90
46732;DHT22;32477;51.474;5.696;2022-11-20T04:00:41;-1.70;99.90
46732;DHT22;32477;51.474;5.696;2022-11-20T04:03:07;-1.80;99.90
46732;DHT22;32477;51.474;5.696;2022-11-20T04:05:33;-1.90;99.90
46732;DHT22;32477;51.474;5.696;2022-11-20T04:07:59;-1.90;99.90
46732;DHT22;32477;51.474;5.696;2022-11-20T04:10:25;-1.90;99.90
46732;DHT22;32477;51.474;5.696;2022-11-20T04:12:51;-2.00;99.90
46732;DHT22;32477;51.474;5.696;2022-11-20T04:15:16;-2.10;99.90
46732;DHT22;32477;51.474;5.696;2022-11-20T04:17:42;-2.10;99.90
46732;DHT22;32477;51.474;5.696;2022-11-20T04:20:08;-2.20;99.90
46732;DHT22;32477;51.474;5.696;2022-11-20T04:22:33;-2.20;99.90
46732;DHT22;32477;51.474;5.696;2022-11-20T04:24:59;-2.30;99.90
46732;DHT22;32477;51.474;5.696;2022-11-20T04:27:25;-2.30;99.90
46732;DHT22;32477;51.474;5.696;2022-11-20T04:29:50;-2.30;99.90
46732;DHT22;32477;51.474;5.696;2022-11-20T04:32:16;-2.40;99.90
46732;DHT22;32477;51.474;5.696;2022-11-20T04:34:41;-2.40;99.90
46732;DHT22;32477;51.474;5.696;2022-11-20T04:37:07;-2.50;99.90
46732;DHT22;32477;51.474;5.696;2022-11-20T04:39:32;-2.50;99.90
46732;DHT22;32477;51.474;5.696;2022-11-20T04:41:58;-2.60;99.90
46732;DHT22;32477;51.474;5.696;2022-11-20T04:44:42;-2.60;99.90
46732;DHT22;32477;51.474;5.696;2022-11-20T04:47:07;-2.60;99.90
46732;DHT22;32477;51.474;5.696;2022-11-20T04:49:33;-2.50;99.90
46732;DHT22;32477;51.474;5.696;2022-11-20T04:51:59;-2.50;99.90
46732;DHT22;32477;51.474;5.696;2022-11-20T04:54:25;-2.50;99.90
46732;DHT22;32477;51.474;5.696;2022-11-20T04:56:50;-2.40;99.90
46732;DHT22;32477;51.474;5.696;2022-11-20T04:59:16;-2.40;99.90
46732;DHT22;32477;51.474;5.696;2022-11-20T05:01:42;-2.40;99.90
46732;DHT22;32477;51.474;5.696;2022-11-20T05:04:07;-2.40;99.90
46732;DHT22;32477;51.474;5.696;2022-11-20T05:06:33;-2.40;99.90
46732;DHT22;32477;51.474;5.696;2022-11-20T05:08:59;-2.30;99.90
46732;DHT22;32477;51.474;5.696;2022-11-20T05:11:25;-2.30;99.90
46732;DHT22;32477;51.474;5.696;2022-11-20T05:13:51;-2.30;99.90
46732;DHT22;32477;51.474;5.696;2022-11-20T05:16:23;-2.20;99.90
46732;DHT22;32477;51.474;5.696;2022-11-20T05:18:50;-2.40;99.90
46732;DHT22;32477;51.474;5.696;2022-11-20T05:21:17;-2.40;99.90
46732;DHT22;32477;51.474;5.696;2022-11-20T05:23:43;-2.40;99.90
46732;DHT22;32477;51.474;5.696;2022-11-20T05:26:19;-2.40;99.90
46732;DHT22;32477;51.474;5.696;2022-11-20T05:28:47;-2.30;99.90
46732;DHT22;32477;51.474;5.696;2022-11-20T05:31:18;-2.20;99.90
46732;DHT22;32477;51.474;5.696;2022-11-20T05:33:45;-2.20;99.90
46732;DHT22;32477;51.474;5.696;2022-11-20T05:36:12;-2.20;99.90
46732;DHT22;32477;51.474;5.696;2022-11-20T05:38:38;-2.20;99.90
46732;DHT22;32477;51.474;5.696;2022-11-20T05:41:05;-2.10;99.90
46732;DHT22;32477;51.474;5.696;2022-11-20T05:43:35;-2.00;99.90
46732;DHT22;32477;51.474;5.696;2022-11-20T05:46:01;-2.00;99.90
46732;DHT22;32477;51.474;5.696;2022-11-20T05:48:27;-1.90;99.90
46732;DHT22;32477;51.474;5.696;2022-11-20T05:50:53;-1.80;99.90
46732;DHT22;32477;51.474;5.696;2022-11-20T05:53:19;-1.80;99.90
46732;DHT22;32477;51.474;5.696;2022-11-20T05:55:45;-1.80;99.90
46732;DHT22;32477;51.474;5.696;2022-11-20T05:58:10;-1.80;99.90
46732;DHT22;32477;51.474;5.696;2022-11-20T06:00:36;-1.70;99.90
46732;DHT22;32477;51.474;5.696;2022-11-20T06:03:02;-1.70;99.90
46732;DHT22;32477;51.474;5.696;2022-11-20T06:05:28;-1.70;99.90
46732;DHT22;32477;51.474;5.696;2022-11-20T06:07:53;-1.60;99.90
46732;DHT22;32477;51.474;5.696;2022-11-20T06:10:19;-1.50;99.90
46732;DHT22;32477;51.474;5.696;2022-11-20T06:12:44;-1.50;99.90
46732;DHT22;32477;51.474;5.696;2022-11-20T06:15:10;-1.40;99.90
46732;DHT22;32477;51.474;5.696;2022-11-20T06:17:36;-1.30;99.90
46732;DHT22;32477;51.474;5.696;2022-11-20T06:20:01;-1.30;99.90
46732;DHT22;32477;51.474;5.696;2022-11-20T06:22:27;-1.20;99.90
46732;DHT22;32477;51.474;5.696;2022-11-20T06:24:53;-1.20;99.90
46732;DHT22;32477;51.474;5.696;2022-11-20T06:27:18;-1.20;99.90
46732;DHT22;32477;51.474;5.696;2022-11-20T06:29:44;-1.20;99.90
46732;DHT22;32477;51.474;5.696;2022-11-20T06:32:10;-1.10;99.90
46732;DHT22;32477;51.474;5.696;2022-11-20T06:34:35;-1.00;99.90
46732;DHT22;32477;51.474;5.696;2022-11-20T06:37:01;-1.00;99.90
46732;DHT22;32477;51.474;5.696;2022-11-20T06:39:26;-0.90;99.90
46732;DHT22;32477;51.474;5.696;2022-11-20T06:41:52;-0.90;99.90
46732;DHT22;32477;51.474;5.696;2022-11-20T06:44:18;-0.90;99.90
46732;DHT22;32477;51.474;5.696;2022-11-20T06:46:43;-0.90;99.90
46732;DHT22;32477;51.474;5.696;2022-11-20T06:49:09;-0.90;99.90
46732;DHT22;32477;51.474;5.696;2022-11-20T06:51:34;-0.80;99.90
46732;DHT22;32477;51.474;5.696;2022-11-20T06:54:00;-0.70;99.90
46732;DHT22;32477;51.474;5.696;2022-11-20T06:56:26;-0.70;99.90
46732;DHT22;32477;51.474;5.696;2022-11-20T06:58:52;-0.60;99.90
46732;DHT22;32477;51.474;5.696;2022-11-20T07:01:17;-0.60;99.90
46732;DHT22;32477;51.474;5.696;2022-11-20T07:03:43;-0.70;99.90
46732;DHT22;32477;51.474;5.696;2022-11-20T07:06:09;-0.60;99.90
46732;DHT22;32477;51.474;5.696;2022-11-20T07:08:36;-0.60;99.90
46732;DHT22;32477;51.474;5.696;2022-11-20T07:11:07;-0.60;99.90
46732;DHT22;32477;51.474;5.696;2022-11-20T07:13:33;-0.60;99.90
46732;DHT22;32477;51.474;5.696;2022-11-20T07:16:04;-0.60;99.90
46732;DHT22;32477;51.474;5.696;2022-11-20T07:18:30;-0.50;99.90
46732;DHT22;32477;51.474;5.696;2022-11-20T07:20:59;-0.40;99.90
46732;DHT22;32477;51.474;5.696;2022-11-20T07:23:25;-0.40;99.90
46732;DHT22;32477;51.474;5.696;2022-11-20T07:25:50;-0.40;99.90
46732;DHT22;32477;51.474;5.696;2022-11-20T07:28:16;-0.40;99.90
46732;DHT22;32477;51.474;5.696;2022-11-20T07:30:42;-0.30;99.90
46732;DHT22;32477;51.474;5.696;2022-11-20T07:33:07;-0.20;99.90
46732;DHT22;32477;51.474;5.696;2022-11-20T07:35:33;-0.20;99.90
46732;DHT22;32477;51.474;5.696;2022-11-20T07:37:58;-0.10;99.90
46732;DHT22;32477;51.474;5.696;2022-11-20T07:40:24;-0.10;99.90
46732;DHT22;32477;51.474;5.696;2022-11-20T07:42:51;-0.10;99.90
46732;DHT22;32477;51.474;5.696;2022-11-20T07:45:22;0.00;99.90
46732;DHT22;32477;51.474;5.696;2022-11-20T07:47:48;0.00;99.90
46732;DHT22;32477;51.474;5.696;2022-11-20T07:50:15;0.10;99.90
46732;DHT22;32477;51.474;5.696;2022-11-20T07:52:41;0.10;99.90
46732;DHT22;32477;51.474;5.696;2022-11-20T07:55:07;0.10;99.90
46732;DHT22;32477;51.474;5.696;2022-11-20T07:57:33;0.10;99.90
46732;DHT22;32477;51.474;5.696;2022-11-20T07:59:59;0.10;99.90
46732;DHT22;32477;51.474;5.696;2022-11-20T08:02:25;0.20;99.90
46732;DHT22;32477;51.474;5.696;2022-11-20T08:04:51;0.10;99.90
46732;DHT22;32477;51.474;5.696;2022-11-20T08:07:16;0.20;99.90
46732;DHT22;32477;51.474;5.696;2022-11-20T08:09:42;0.30;99.90
46732;DHT22;32477;51.474;5.696;2022-11-20T08:12:08;0.40;99.90
46732;DHT22;32477;51.474;5.696;2022-11-20T08:14:57;0.40;99.90
46732;DHT22;32477;51.474;5.696;2022-11-20T08:17:24;0.50;99.90
46732;DHT22;32477;51.474;5.696;2022-11-20T08:19:49;0.60;99.90
46732;DHT22;32477;51.474;5.696;2022-11-20T08:22:15;0.70;99.90
46732;DHT22;32477;51.474;5.696;2022-11-20T08:24:42;0.70;99.90
46732;DHT22;32477;51.474;5.696;2022-11-20T08:27:08;0.90;99.90
46732;DHT22;32477;51.474;5.696;2022-11-20T08:29:34;1.10;99.90
46732;DHT22;32477;51.474;5.696;2022-11-20T08:31:59;1.30;99.90
46732;DHT22;32477;51.474;5.696;2022-11-20T08:34:25;1.50;99.90
46732;DHT22;32477;51.474;5.696;2022-11-20T08:36:51;1.60;99.90
46732;DHT22;32477;51.474;5.696;2022-11-20T08:39:16;1.70;99.90
46732;DHT22;32477;51.474;5.696;2022-11-20T08:41:42;1.80;99.90
46732;DHT22;32477;51.474;5.696;2022-11-20T08:44:08;1.70;99.90
46732;DHT22;32477;51.474;5.696;2022-11-20T08:46:34;1.70;99.90
46732;DHT22;32477;51.474;5.696;2022-11-20T08:49:03;1.70;99.90
46732;DHT22;32477;51.474;5.696;2022-11-20T08:51:28;1.70;99.90
46732;DHT22;32477;51.474;5.696;2022-11-20T08:53:54;1.80;99.90
46732;DHT22;32477;51.474;5.696;2022-11-20T08:56:19;1.80;99.90
46732;DHT22;32477;51.474;5.696;2022-11-20T08:58:45;1.90;99.90
46732;DHT22;32477;51.474;5.696;2022-11-20T09:01:11;1.90;99.90
46732;DHT22;32477;51.474;5.696;2022-11-20T09:03:36;2.00;99.90
46732;DHT22;32477;51.474;5.696;2022-11-20T09:06:05;2.10;99.90
46732;DHT22;32477;51.474;5.696;2022-11-20T09:08:31;2.30;99.90
46732;DHT22;32477;51.474;5.696;2022-11-20T09:10:57;2.40;99.90
46732;DHT22;32477;51.474;5.696;2022-11-20T09:13:24;2.50;99.90
46732;DHT22;32477;51.474;5.696;2022-11-20T09:16:00;2.70;99.90
46732;DHT22;32477;51.474;5.696;2022-11-20T09:18:27;2.80;99.90
46732;DHT22;32477;51.474;5.696;2022-11-20T09:20:58;2.80;99.90
46732;DHT22;32477;51.474;5.696;2022-11-20T09:23:24;2.90;99.90
46732;DHT22;32477;51.474;5.696;2022-11-20T09:25:50;2.90;99.90
46732;DHT22;32477;51.474;5.696;2022-11-20T09:28:16;2.90;99.90
46732;DHT22;32477;51.474;5.696;2022-11-20T09:30:44;2.90;99.90
46732;DHT22;32477;51.474;5.696;2022-11-20T09:33:10;3.00;99.90
46732;DHT22;32477;51.474;5.696;2022-11-20T09:35:35;3.10;99.90
46732;DHT22;32477;51.474;5.696;2022-11-20T09:38:08;3.20;99.90
46732;DHT22;32477;51.474;5.696;2022-11-20T09:40:35;3.30;99.90
46732;DHT22;32477;51.474;5.696;2022-11-20T09:54:17;3.30;99.90
46732;DHT22;32477;51.474;5.696;2022-11-20T09:56:50;3.30;99.90
46732;DHT22;32477;51.474;5.696;2022-11-20T10:02:08;3.50;99.90
46732;DHT22;32477;51.474;5.696;2022-11-20T10:04:53;3.60;99.90
46732;DHT22;32477;51.474;5.696;2022-11-20T10:08:10;3.70;99.90
46732;DHT22;32477;51.474;5.696;2022-11-20T10:10:21;3.70;99.90
46732;DHT22;32477;51.474;5.696;2022-11-20T10:15:33;3.80;99.90
46732;DHT22;32477;51.474;5.696;2022-11-20T10:23:47;3.70;99.90
46732;DHT22;32477;51.474;5.696;2022-11-20T10:26:34;3.70;99.90
46732;DHT22;32477;51.474;5.696;2022-11-20T10:31:36;3.70;99.90
46732;DHT22;32477;51.474;5.696;2022-11-20T10:34:28;3.70;99.90
46732;DHT22;32477;51.474;5.696;2022-11-20T10:36:58;3.70;99.90
46732;DHT22;32477;51.474;5.696;2022-11-20T10:39:42;3.70;99.90
46732;DHT22;32477;51.474;5.696;2022-11-20T10:42:17;3.80;99.90
46732;DHT22;32477;51.474;5.696;2022-11-20T10:44:52;3.80;99.90
46732;DHT22;32477;51.474;5.696;2022-11-20T10:47:30;3.90;99.90
46732;DHT22;32477;51.474;5.696;2022-11-20T10:49:58;4.10;99.90
46732;DHT22;32477;51.474;5.696;2022-11-20T10:58:08;4.40;99.90
46732;DHT22;32477;51.474;5.696;2022-11-20T11:00:35;4.30;99.90
46732;DHT22;32477;51.474;5.696;2022-11-20T11:03:01;4.20;99.90
46732;DHT22;32477;51.474;5.696;2022-11-20T11:05:53;4.30;99.90
46732;DHT22;32477;51.474;5.696;2022-11-20T11:08:20;4.20;99.90
46732;DHT22;32477;51.474;5.696;2022-11-20T11:10:53;4.10;99.90
46732;DHT22;32477;51.474;5.696;2022-11-20T11:13:27;4.10;99.90
46732;DHT22;32477;51.474;5.696;2022-11-20T11:15:54;4.10;99.90
46732;DHT22;32477;51.474;5.696;2022-11-20T11:18:28;4.10;99.90
46732;DHT22;32477;51.474;5.696;2022-11-20T11:20:56;4.30;99.90
46732;DHT22;32477;51.474;5.696;2022-11-20T11:23:35;4.30;99.90
46732;DHT22;32477;51.474;5.696;2022-11-20T11:26:04;4.30;99.90
46732;DHT22;32477;51.474;5.696;2022-11-20T11:28:30;4.20;99.90
46732;DHT22;32477;51.474;5.696;2022-11-20T11:30:58;4.20;99.90
46732;DHT22;32477;51.474;5.696;2022-11-20T11:33:29;4.30;99.90
46732;DHT22;32477;51.474;5.696;2022-11-20T11:36:01;4.40;99.90
46732;DHT22;32477;51.474;5.696;2022-11-20T11:38:40;4.30;99.90
46732;DHT22;32477;51.474;5.696;2022-11-20T11:41:09;4.20;99.90
46732;DHT22;32477;51.474;5.696;2022-11-20T11:43:37;4.20;99.90
46732;DHT22;32477;51.474;5.696;2022-11-20T11:46:26;4.20;99.90
46732;DHT22;32477;51.474;5.696;2022-11-20T11:51:26;4.20;99.90
46732;DHT22;32477;51.474;5.696;2022-11-20T11:53:54;4.20;99.90
46732;DHT22;32477;51.474;5.696;2022-11-20T11:56:22;4.10;99.90
46732;DHT22;32477;51.474;5.696;2022-11-20T11:58:50;4.20;99.90
46732;DHT22;32477;51.474;5.696;2022-11-20T12:01:33;4.10;99.90
46732;DHT22;32477;51.474;5.696;2022-11-20T12:04:33;4.10;99.90
46732;DHT22;32477;51.474;5.696;2022-11-20T12:16:03;4.10;99.90
46732;DHT22;32477;51.474;5.696;2022-11-20T12:18:29;4.20;99.90
46732;DHT22;32477;51.474;5.696;2022-11-20T12:21:18;4.30;99.90
46732;DHT22;32477;51.474;5.696;2022-11-20T12:34:43;4.40;99.90
46732;DHT22;32477;51.474;5.696;2022-11-20T12:38:01;4.50;99.90
46732;DHT22;32477;51.474;5.696;2022-11-20T12:40:21;4.50;99.90
46732;DHT22;32477;51.474;5.696;2022-11-20T12:43:06;4.60;99.90
46732;DHT22;32477;51.474;5.696;2022-11-20T13:02:56;4.70;99.90
46732;DHT22;32477;51.474;5.696;2022-11-20T13:05:46;4.80;99.90
46732;DHT22;32477;51.474;5.696;2022-11-20T13:08:23;4.80;99.90
46732;DHT22;32477;51.474;5.696;2022-11-20T13:11:16;4.80;99.90
46732;DHT22;32477;51.474;5.696;2022-11-20T13:19:18;5.00;99.90
46732;DHT22;32477;51.474;5.696;2022-11-20T13:21:48;5.00;99.90
46732;DHT22;32477;51.474;5.696;2022-11-20T13:29:26;5.10;99.90
46732;DHT22;32477;51.474;5.696;2022-11-20T13:32:22;5.10;99.90
46732;DHT22;32477;51.474;5.696;2022-11-20T13:34:56;5.10;99.90
46732;DHT22;32477;51.474;5.696;2022-11-20T13:37:35;5.00;99.90
46732;DHT22;32477;51.474;5.696;2022-11-20T13:42:37;5.00;99.90
46732;DHT22;32477;51.474;5.696;2022-11-20T13:45:10;5.00;99.90
46732;DHT22;32477;51.474;5.696;2022-11-20T13:47:36;5.10;99.90
46732;DHT22;32477;51.474;5.696;2022-11-20T13:50:08;5.10;99.90
46732;DHT22;32477;51.474;5.696;2022-11-20T13:52:48;5.10;99.90
46732;DHT22;32477;51.474;5.696;2022-11-20T13:58:40;5.20;99.90
46732;DHT22;32477;51.474;5.696;2022-11-20T14:01:15;5.20;99.90
46732;DHT22;32477;51.474;5.696;2022-11-20T14:03:42;5.20;99.90
46732;DHT22;32477;51.474;5.696;2022-11-20T14:06:20;5.20;99.90
46732;DHT22;32477;51.474;5.696;2022-11-20T14:08:49;5.20;99.90
46732;DHT22;32477;51.474;5.696;2022-11-20T14:11:29;5.20;99.90
46732;DHT22;32477;51.474;5.696;2022-11-20T14:16:30;5.20;99.90
46732;DHT22;32477;51.474;5.696;2022-11-20T14:18:57;5.20;99.90
46732;DHT22;32477;51.474;5.696;2022-11-20T14:21:24;5.20;99.90
46732;DHT22;32477;51.474;5.696;2022-11-20T14:23:53;5.20;99.90
46732;DHT22;32477;51.474;5.696;2022-11-20T14:26:19;5.20;99.90
46732;DHT22;32477;51.474;5.696;2022-11-20T14:28:49;5.20;99.90
46732;DHT22;32477;51.474;5.696;2022-11-20T14:31:26;5.10;99.90
46732;DHT22;32477;51.474;5.696;2022-11-20T14:33:54;5.10;99.90
46732;DHT22;32477;51.474;5.696;2022-11-20T14:36:22;5.10;99.90
46732;DHT22;32477;51.474;5.696;2022-11-20T14:38:49;5.10;99.90
46732;DHT22;32477;51.474;5.696;2022-11-20T14:41:23;5.10;99.90
46732;DHT22;32477;51.474;5.696;2022-11-20T14:43:59;5.10;99.90
46732;DHT22;32477;51.474;5.696;2022-11-20T14:46:27;5.00;99.90
46732;DHT22;32477;51.474;5.696;2022-11-20T14:49:00;5.00;99.90
46732;DHT22;32477;51.474;5.696;2022-11-20T14:51:35;4.90;99.90
46732;DHT22;32477;51.474;5.696;2022-11-20T14:54:20;4.90;99.90
46732;DHT22;32477;51.474;5.696;2022-11-20T14:57:03;4.90;99.90
46732;DHT22;32477;51.474;5.696;2022-11-20T14:59:31;4.90;99.90
46732;DHT22;32477;51.474;5.696;2022-11-20T15:02:05;4.90;99.90
46732;DHT22;32477;51.474;5.696;2022-11-20T15:04:32;4.90;99.90
46732;DHT22;32477;51.474;5.696;2022-11-20T15:06:59;4.90;99.90
46732;DHT22;32477;51.474;5.696;2022-11-20T15:09:25;4.90;99.90
46732;DHT22;32477;51.474;5.696;2022-11-20T15:11:56;4.90;99.90
46732;DHT22;32477;51.474;5.696;2022-11-20T15:14:23;4.90;99.90
46732;DHT22;32477;51.474;5.696;2022-11-20T15:16:50;4.90;99.90
46732;DHT22;32477;51.474;5.696;2022-11-20T15:19:21;4.90;99.90
46732;DHT22;32477;51.474;5.696;2022-11-20T15:21:47;4.90;99.90
46732;DHT22;32477;51.474;5.696;2022-11-20T15:24:13;4.90;99.90
46732;DHT22;32477;51.474;5.696;2022-11-20T15:26:39;5.00;99.90
46732;DHT22;32477;51.474;5.696;2022-11-20T15:29:08;5.00;99.90
46732;DHT22;32477;51.474;5.696;2022-11-20T15:31:35;5.00;99.90
46732;DHT22;32477;51.474;5.696;2022-11-20T15:34:01;5.00;99.90
46732;DHT22;32477;51.474;5.696;2022-11-20T15:36:27;5.00;99.90
46732;DHT22;32477;51.474;5.696;2022-11-20T15:38:53;5.10;99.90
46732;DHT22;32477;51.474;5.696;2022-11-20T15:41:18;5.10;99.90
46732;DHT22;32477;51.474;5.696;2022-11-20T15:43:44;5.10;99.90
46732;DHT22;32477;51.474;5.696;2022-11-20T15:46:25;5.20;99.90
46732;DHT22;32477;51.474;5.696;2022-11-20T15:48:55;5.20;99.90
46732;DHT22;32477;51.474;5.696;2022-11-20T15:51:25;5.20;99.90
46732;DHT22;32477;51.474;5.696;2022-11-20T15:53:51;5.20;99.90
46732;DHT22;32477;51.474;5.696;2022-11-20T15:56:17;5.30;99.90
46732;DHT22;32477;51.474;5.696;2022-11-20T15:58:43;5.30;99.90
46732;DHT22;32477;51.474;5.696;2022-11-20T16:01:14;5.30;99.90
46732;DHT22;32477;51.474;5.696;2022-11-20T16:03:40;5.30;99.90
46732;DHT22;32477;51.474;5.696;2022-11-20T16:06:06;5.30;99.90
46732;DHT22;32477;51.474;5.696;2022-11-20T16:08:32;5.30;99.90
46732;DHT22;32477;51.474;5.696;2022-11-20T16:10:58;5.40;99.90
46732;DHT22;32477;51.474;5.696;2022-11-20T16:13:23;5.40;99.90
46732;DHT22;32477;51.474;5.696;2022-11-20T16:18:47;5.40;99.90
46732;DHT22;32477;51.474;5.696;2022-11-20T16:21:13;5.50;99.90
46732;DHT22;32477;51.474;5.696;2022-11-20T16:23:39;5.50;99.90
46732;DHT22;32477;51.474;5.696;2022-11-20T16:26:16;5.50;99.90
46732;DHT22;32477;51.474;5.696;2022-11-20T16:28:43;5.60;99.90
46732;DHT22;32477;51.474;5.696;2022-11-20T16:31:17;5.60;99.90
46732;DHT22;32477;51.474;5.696;2022-11-20T16:33:43;5.60;99.90
46732;DHT22;32477;51.474;5.696;2022-11-20T16:36:10;5.60;99.90
46732;DHT22;32477;51.474;5.696;2022-11-20T16:38:36;5.60;99.90
46732;DHT22;32477;51.474;5.696;2022-11-20T16:41:02;5.60;99.90
46732;DHT22;32477;51.474;5.696;2022-11-20T16:43:28;5.60;99.90
46732;DHT22;32477;51.474;5.696;2022-11-20T16:45:54;5.70;99.90
46732;DHT22;32477;51.474;5.696;2022-11-20T16:48:19;5.70;99.90
46732;DHT22;32477;51.474;5.696;2022-11-20T16:50:51;5.70;99.90
46732;DHT22;32477;51.474;5.696;2022-11-20T16:53:18;5.80;99.90
46732;DHT22;32477;51.474;5.696;2022-11-20T16:55:45;5.80;99.90
46732;DHT22;32477;51.474;5.696;2022-11-20T16:58:10;5.80;99.90
46732;DHT22;32477;51.474;5.696;2022-11-20T17:00:38;5.80;99.90
46732;DHT22;32477;51.474;5.696;2022-11-20T17:03:04;5.90;99.90
46732;DHT22;32477;51.474;5.696;2022-11-20T17:05:31;5.90;99.90
46732;DHT22;32477;51.474;5.696;2022-11-20T17:07:57;6.00;99.90
46732;DHT22;32477;51.474;5.696;2022-11-20T17:10:23;6.10;99.90
46732;DHT22;32477;51.474;5.696;2022-11-20T17:12:48;6.00;99.90
46732;DHT22;32477;51.474;5.696;2022-11-20T17:15:14;6.00;99.90
46732;DHT22;32477;51.474;5.696;2022-11-20T17:17:40;6.00;99.90
46732;DHT22;32477;51.474;5.696;2022-11-20T17:20:06;6.10;99.90
46732;DHT22;32477;51.474;5.696;2022-11-20T17:22:32;6.10;99.90
46732;DHT22;32477;51.474;5.696;2022-11-20T17:24:57;6.20;99.90
46732;DHT22;32477;51.474;5.696;2022-11-20T17:27:23;6.20;99.90
46732;DHT22;32477;51.474;5.696;2022-11-20T17:29:49;6.30;99.90
46732;DHT22;32477;51.474;5.696;2022-11-20T17:32:14;6.30;99.90
46732;DHT22;32477;51.474;5.696;2022-11-20T17:34:40;6.30;99.90
46732;DHT22;32477;51.474;5.696;2022-11-20T17:37:06;6.40;99.90
46732;DHT22;32477;51.474;5.696;2022-11-20T17:39:31;6.40;99.90
46732;DHT22;32477;51.474;5.696;2022-11-20T17:41:57;6.50;99.90